sensor_id;sensor_type;location;lat;lon;timestamp;pressure;altitude;pressure_sealevel;temperature;humidity
61761;BME280;47664;51.660;-0.100;2023-05-23T00:02:19;101842.12;;;12.28;48.13
61761;BME280;47664;51.660;-0.100;2023-05-23T00:04:47;101843.74;;;12.65;47.95
61761;BME280;47664;51.660;-0.100;2023-05-23T00:07:15;101843.08;;;11.92;47.99
61761;BME280;47664;51.660;-0.100;2023-05-23T00:09:43;101844.44;;;12.31;48.59
61761;BME280;47664;51.660;-0.100;2023-05-23T00:12:10;101841.96;;;12.17;48.74
61761;BME280;47664;51.660;-0.100;2023-05-23T00:14:38;101841.96;;;12.64;48.47
61761;BME280;47664;51.660;-0.100;2023-05-23T00:17:07;101841.49;;;11.94;48.39
61761;BME280;47664;51.660;-0.100;2023-05-23T00:19:35;101842.12;;;12.65;48.44
61761;BME280;47664;51.660;-0.100;2023-05-23T00:22:02;101837.54;;;12.30;49.00
61761;BME280;47664;51.660;-0.100;2023-05-23T00:24:29;101833.16;;;12.20;49.30
61761;BME280;47664;51.660;-0.100;2023-05-23T00:26:57;101832.21;;;12.12;49.07
61761;BME280;47664;51.660;-0.100;2023-05-23T00:29:24;101827.55;;;12.01;49.17
61761;BME280;47664;51.660;-0.100;2023-05-23T00:31:52;101823.03;;;11.94;49.79
61761;BME280;47664;51.660;-0.100;2023-05-23T00:34:19;101825.23;;;12.27;49.16
61761;BME280;47664;51.660;-0.100;2023-05-23T00:36:47;101825.24;;;12.37;48.98
61761;BME280;47664;51.660;-0.100;2023-05-23T00:39:15;101825.46;;;11.76;49.11
61761;BME280;47664;51.660;-0.100;2023-05-23T00:41:42;101827.48;;;12.39;49.36
61761;BME280;47664;51.660;-0.100;2023-05-23T00:44:11;101825.89;;;12.19;49.25
61761;BME280;47664;51.660;-0.100;2023-05-23T00:46:38;101821.49;;;11.83;50.02
61761;BME280;47664;51.660;-0.100;2023-05-23T00:49:07;101818.71;;;11.16;50.08
61761;BME280;47664;51.660;-0.100;2023-05-23T00:51:35;101819.26;;;11.72;50.19
61761;BME280;47664;51.660;-0.100;2023-05-23T00:54:04;101818.90;;;11.22;50.35
61761;BME280;47664;51.660;-0.100;2023-05-23T00:56:32;101814.73;;;11.14;49.63
61761;BME280;47664;51.660;-0.100;2023-05-23T00:59:01;101816.53;;;11.56;49.35
61761;BME280;47664;51.660;-0.100;2023-05-23T01:01:28;101816.92;;;12.26;49.57
61761;BME280;47664;51.660;-0.100;2023-05-23T01:03:56;101819.07;;;11.84;50.83
61761;BME280;47664;51.660;-0.100;2023-05-23T01:06:24;101817.84;;;12.17;50.88
61761;BME280;47664;51.660;-0.100;2023-05-23T01:08:52;101813.80;;;12.06;51.11
61761;BME280;47664;51.660;-0.100;2023-05-23T01:11:33;101814.38;;;11.96;50.87
61761;BME280;47664;51.660;-0.100;2023-05-23T01:14:07;101812.81;;;11.90;51.63
61761;BME280;47664;51.660;-0.100;2023-05-23T01:16:41;101816.75;;;11.78;52.20
61761;BME280;47664;51.660;-0.100;2023-05-23T01:19:37;101821.00;;;10.61;53.98
61761;BME280;47664;51.660;-0.100;2023-05-23T01:22:15;101820.49;;;11.22;54.13
61761;BME280;47664;51.660;-0.100;2023-05-23T01:24:54;101823.45;;;11.75;54.17
61761;BME280;47664;51.660;-0.100;2023-05-23T01:30:01;101828.86;;;11.52;54.29
61761;BME280;47664;51.660;-0.100;2023-05-23T01:32:31;101830.40;;;11.36;54.77
61761;BME280;47664;51.660;-0.100;2023-05-23T01:35:00;101832.68;;;11.06;55.80
61761;BME280;47664;51.660;-0.100;2023-05-23T01:37:27;101828.23;;;11.13;56.11
61761;BME280;47664;51.660;-0.100;2023-05-23T01:39:55;101829.59;;;11.11;56.91
61761;BME280;47664;51.660;-0.100;2023-05-23T01:42:23;101823.54;;;11.49;56.76
61761;BME280;47664;51.660;-0.100;2023-05-23T01:44:51;101822.85;;;11.67;56.70
61761;BME280;47664;51.660;-0.100;2023-05-23T01:47:19;101828.69;;;11.18;56.91
61761;BME280;47664;51.660;-0.100;2023-05-23T01:49:48;101837.85;;;11.59;57.27
61761;BME280;47664;51.660;-0.100;2023-05-23T01:52:17;101838.83;;;11.46;57.27
61761;BME280;47664;51.660;-0.100;2023-05-23T01:54:45;101840.85;;;11.53;57.77
61761;BME280;47664;51.660;-0.100;2023-05-23T01:57:13;101846.74;;;10.48;59.13
61761;BME280;47664;51.660;-0.100;2023-05-23T01:59:41;101844.39;;;10.92;58.35
61761;BME280;47664;51.660;-0.100;2023-05-23T02:02:09;101843.51;;;10.00;57.94
61761;BME280;47664;51.660;-0.100;2023-05-23T02:04:37;101845.00;;;11.78;56.22
61761;BME280;47664;51.660;-0.100;2023-05-23T02:07:05;101850.90;;;10.95;57.31
61761;BME280;47664;51.660;-0.100;2023-05-23T02:09:32;101854.55;;;11.29;57.95
61761;BME280;47664;51.660;-0.100;2023-05-23T02:12:00;101858.20;;;11.73;58.15
61761;BME280;47664;51.660;-0.100;2023-05-23T02:14:28;101855.00;;;11.42;58.64
61761;BME280;47664;51.660;-0.100;2023-05-23T02:16:55;101860.44;;;10.85;59.87
61761;BME280;47664;51.660;-0.100;2023-05-23T02:19:23;101858.00;;;9.95;58.26
61761;BME280;47664;51.660;-0.100;2023-05-23T02:21:51;101849.81;;;10.60;56.64
61761;BME280;47664;51.660;-0.100;2023-05-23T02:24:19;101853.49;;;10.87;56.08
61761;BME280;47664;51.660;-0.100;2023-05-23T02:26:47;101857.10;;;10.73;56.74
61761;BME280;47664;51.660;-0.100;2023-05-23T02:29:15;101862.35;;;11.21;56.41
61761;BME280;47664;51.660;-0.100;2023-05-23T02:31:43;101863.64;;;11.63;57.32
61761;BME280;47664;51.660;-0.100;2023-05-23T02:34:11;101868.10;;;11.14;58.66
61761;BME280;47664;51.660;-0.100;2023-05-23T02:36:39;101862.53;;;11.49;57.98
61761;BME280;47664;51.660;-0.100;2023-05-23T02:39:06;101869.92;;;10.52;58.45
61761;BME280;47664;51.660;-0.100;2023-05-23T02:41:33;101870.22;;;10.92;58.71
61761;BME280;47664;51.660;-0.100;2023-05-23T02:44:01;101868.38;;;11.41;58.11
61761;BME280;47664;51.660;-0.100;2023-05-23T02:46:28;101865.60;;;11.50;57.89
61761;BME280;47664;51.660;-0.100;2023-05-23T02:48:57;101868.93;;;11.30;58.00
61761;BME280;47664;51.660;-0.100;2023-05-23T02:51:24;101870.24;;;11.66;57.52
61761;BME280;47664;51.660;-0.100;2023-05-23T02:53:51;101875.63;;;11.52;58.02
61761;BME280;47664;51.660;-0.100;2023-05-23T02:56:19;101872.06;;;11.51;57.73
61761;BME280;47664;51.660;-0.100;2023-05-23T02:58:46;101878.59;;;11.50;57.41
61761;BME280;47664;51.660;-0.100;2023-05-23T03:01:14;101880.83;;;11.00;58.06
61761;BME280;47664;51.660;-0.100;2023-05-23T03:03:41;101880.97;;;11.21;58.31
61761;BME280;47664;51.660;-0.100;2023-05-23T03:06:09;101883.64;;;10.93;58.65
61761;BME280;47664;51.660;-0.100;2023-05-23T03:08:37;101883.50;;;11.69;58.16
61761;BME280;47664;51.660;-0.100;2023-05-23T03:11:05;101883.37;;;10.73;58.20
61761;BME280;47664;51.660;-0.100;2023-05-23T03:13:33;101886.55;;;11.27;57.69
61761;BME280;47664;51.660;-0.100;2023-05-23T03:16:01;101887.89;;;11.30;57.74
61761;BME280;47664;51.660;-0.100;2023-05-23T03:18:28;101889.85;;;11.43;57.41
61761;BME280;47664;51.660;-0.100;2023-05-23T03:20:56;101886.54;;;11.82;57.36
61761;BME280;47664;51.660;-0.100;2023-05-23T03:23:23;101878.29;;;11.46;56.59
61761;BME280;47664;51.660;-0.100;2023-05-23T03:25:51;101881.39;;;11.66;56.62
61761;BME280;47664;51.660;-0.100;2023-05-23T03:28:19;101878.74;;;11.85;56.16
61761;BME280;47664;51.660;-0.100;2023-05-23T03:30:47;101877.23;;;11.87;55.93
61761;BME280;47664;51.660;-0.100;2023-05-23T03:33:15;101879.54;;;11.30;55.90
61761;BME280;47664;51.660;-0.100;2023-05-23T03:35:42;101881.22;;;10.99;57.15
61761;BME280;47664;51.660;-0.100;2023-05-23T03:38:10;101880.85;;;11.41;57.04
61761;BME280;47664;51.660;-0.100;2023-05-23T03:40:38;101883.98;;;11.40;56.95
61761;BME280;47664;51.660;-0.100;2023-05-23T03:43:07;101883.53;;;10.62;56.53
61761;BME280;47664;51.660;-0.100;2023-05-23T03:45:35;101889.26;;;11.62;55.88
61761;BME280;47664;51.660;-0.100;2023-05-23T03:48:03;101891.38;;;11.12;56.39
61761;BME280;47664;51.660;-0.100;2023-05-23T03:50:31;101899.06;;;11.56;55.74
61761;BME280;47664;51.660;-0.100;2023-05-23T03:52:59;101897.94;;;11.11;56.05
61761;BME280;47664;51.660;-0.100;2023-05-23T03:55:26;101899.45;;;10.83;56.94
61761;BME280;47664;51.660;-0.100;2023-05-23T03:57:54;101896.28;;;11.30;56.24
61761;BME280;47664;51.660;-0.100;2023-05-23T04:00:21;101895.47;;;11.09;56.40
61761;BME280;47664;51.660;-0.100;2023-05-23T04:02:48;101891.71;;;11.45;56.14
61761;BME280;47664;51.660;-0.100;2023-05-23T04:05:16;101893.13;;;10.79;56.05
61761;BME280;47664;51.660;-0.100;2023-05-23T04:07:44;101896.37;;;11.25;55.89
61761;BME280;47664;51.660;-0.100;2023-05-23T04:10:12;101893.67;;;11.23;55.68
61761;BME280;47664;51.660;-0.100;2023-05-23T04:12:40;101895.98;;;11.18;55.67
61761;BME280;47664;51.660;-0.100;2023-05-23T04:15:08;101891.94;;;10.83;55.14
61761;BME280;47664;51.660;-0.100;2023-05-23T04:17:36;101894.25;;;11.26;54.69
61761;BME280;47664;51.660;-0.100;2023-05-23T04:20:06;101901.35;;;11.18;54.66
61761;BME280;47664;51.660;-0.100;2023-05-23T04:22:33;101902.62;;;11.57;54.86
61761;BME280;47664;51.660;-0.100;2023-05-23T04:25:01;101902.90;;;11.17;54.14
61761;BME280;47664;51.660;-0.100;2023-05-23T04:27:28;101904.38;;;11.41;54.00
61761;BME280;47664;51.660;-0.100;2023-05-23T04:29:56;101904.71;;;11.28;54.08
61761;BME280;47664;51.660;-0.100;2023-05-23T04:32:24;101910.49;;;11.60;54.35
61761;BME280;47664;51.660;-0.100;2023-05-23T04:34:52;101913.09;;;11.46;54.48
61761;BME280;47664;51.660;-0.100;2023-05-23T04:37:19;101916.87;;;10.93;55.02
61761;BME280;47664;51.660;-0.100;2023-05-23T04:39:47;101919.75;;;11.49;54.68
61761;BME280;47664;51.660;-0.100;2023-05-23T04:42:14;101922.47;;;11.54;54.40
61761;BME280;47664;51.660;-0.100;2023-05-23T04:44:42;101925.76;;;11.30;54.65
61761;BME280;47664;51.660;-0.100;2023-05-23T04:47:10;101922.60;;;10.73;54.47
61761;BME280;47664;51.660;-0.100;2023-05-23T04:49:38;101924.65;;;11.44;54.46
61761;BME280;47664;51.660;-0.100;2023-05-23T04:52:05;101932.07;;;11.22;54.50
61761;BME280;47664;51.660;-0.100;2023-05-23T04:54:33;101938.07;;;11.34;54.73
61761;BME280;47664;51.660;-0.100;2023-05-23T04:57:01;101940.51;;;10.60;55.31
61761;BME280;47664;51.660;-0.100;2023-05-23T04:59:28;101942.70;;;11.15;55.33
61761;BME280;47664;51.660;-0.100;2023-05-23T05:01:56;101943.07;;;11.23;55.10
61761;BME280;47664;51.660;-0.100;2023-05-23T05:04:24;101942.87;;;11.28;55.59
61761;BME280;47664;51.660;-0.100;2023-05-23T05:06:52;101948.05;;;11.32;55.85
61761;BME280;47664;51.660;-0.100;2023-05-23T05:09:19;101946.01;;;10.64;56.00
61761;BME280;47664;51.660;-0.100;2023-05-23T05:11:46;101947.68;;;10.74;55.96
61761;BME280;47664;51.660;-0.100;2023-05-23T05:14:14;101946.66;;;10.98;55.77
61761;BME280;47664;51.660;-0.100;2023-05-23T05:18:31;101956.60;;;11.02;55.70
61761;BME280;47664;51.660;-0.100;2023-05-23T05:20:59;101954.80;;;10.62;54.77
61761;BME280;47664;51.660;-0.100;2023-05-23T05:23:27;101957.89;;;10.30;54.47
61761;BME280;47664;51.660;-0.100;2023-05-23T05:25:55;101955.64;;;10.91;54.28
61761;BME280;47664;51.660;-0.100;2023-05-23T05:28:22;101959.10;;;11.68;54.36
61761;BME280;47664;51.660;-0.100;2023-05-23T05:30:50;101963.49;;;11.45;54.86
61761;BME280;47664;51.660;-0.100;2023-05-23T05:33:18;101966.33;;;11.25;54.75
61761;BME280;47664;51.660;-0.100;2023-05-23T05:35:46;101971.93;;;10.11;55.15
61761;BME280;47664;51.660;-0.100;2023-05-23T05:38:14;101975.05;;;11.54;54.87
61761;BME280;47664;51.660;-0.100;2023-05-23T05:40:41;101973.98;;;11.63;54.24
61761;BME280;47664;51.660;-0.100;2023-05-23T05:43:09;101975.56;;;11.62;54.60
61761;BME280;47664;51.660;-0.100;2023-05-23T05:45:36;101972.43;;;10.84;54.84
61761;BME280;47664;51.660;-0.100;2023-05-23T05:52:42;101971.29;;;11.48;56.56
61761;BME280;47664;51.660;-0.100;2023-05-23T05:55:10;101969.30;;;10.65;54.89
61761;BME280;47664;51.660;-0.100;2023-05-23T05:57:40;101967.76;;;12.00;54.17
61761;BME280;47664;51.660;-0.100;2023-05-23T06:00:10;101966.23;;;12.11;53.78
61761;BME280;47664;51.660;-0.100;2023-05-23T06:02:39;101961.61;;;12.17;53.56
61761;BME280;47664;51.660;-0.100;2023-05-23T06:05:08;101967.00;;;11.89;53.48
61761;BME280;47664;51.660;-0.100;2023-05-23T06:07:37;101963.55;;;12.40;53.98
61761;BME280;47664;51.660;-0.100;2023-05-23T06:10:05;101966.84;;;12.22;53.75
61761;BME280;47664;51.660;-0.100;2023-05-23T06:12:33;101970.16;;;12.72;53.14
61761;BME280;47664;51.660;-0.100;2023-05-23T06:15:01;101968.40;;;11.99;53.44
61761;BME280;47664;51.660;-0.100;2023-05-23T06:17:29;101972.91;;;12.61;52.61
61761;BME280;47664;51.660;-0.100;2023-05-23T06:19:56;101976.06;;;12.71;52.72
61761;BME280;47664;51.660;-0.100;2023-05-23T06:22:24;101975.56;;;12.87;52.60
61761;BME280;47664;51.660;-0.100;2023-05-23T06:24:52;101980.94;;;11.57;52.58
61761;BME280;47664;51.660;-0.100;2023-05-23T06:27:20;101983.35;;;12.27;53.42
61761;BME280;47664;51.660;-0.100;2023-05-23T06:29:48;101979.43;;;12.29;52.71
61761;BME280;47664;51.660;-0.100;2023-05-23T06:32:15;101976.15;;;12.73;52.30
61761;BME280;47664;51.660;-0.100;2023-05-23T06:34:43;101972.90;;;12.43;52.12
61761;BME280;47664;51.660;-0.100;2023-05-23T06:37:10;101975.08;;;12.55;52.31
61761;BME280;47664;51.660;-0.100;2023-05-23T06:39:37;101976.72;;;12.87;51.55
61761;BME280;47664;51.660;-0.100;2023-05-23T06:42:04;101977.31;;;12.84;51.68
61761;BME280;47664;51.660;-0.100;2023-05-23T06:44:32;101980.88;;;13.01;51.42
61761;BME280;47664;51.660;-0.100;2023-05-23T06:46:59;101977.27;;;12.41;51.21
61761;BME280;47664;51.660;-0.100;2023-05-23T06:49:27;101979.64;;;13.19;50.47
61761;BME280;47664;51.660;-0.100;2023-05-23T06:51:55;101981.80;;;13.15;50.46
61761;BME280;47664;51.660;-0.100;2023-05-23T06:54:22;101984.46;;;13.04;50.72
61761;BME280;47664;51.660;-0.100;2023-05-23T06:56:50;101991.61;;;12.32;50.72
61761;BME280;47664;51.660;-0.100;2023-05-23T06:59:18;101990.31;;;12.48;51.47
61761;BME280;47664;51.660;-0.100;2023-05-23T07:01:45;101994.56;;;12.65;51.45
61761;BME280;47664;51.660;-0.100;2023-05-23T07:04:13;101997.69;;;12.42;52.01
61761;BME280;47664;51.660;-0.100;2023-05-23T07:06:41;101995.18;;;12.48;52.02
61761;BME280;47664;51.660;-0.100;2023-05-23T07:09:08;101990.85;;;11.90;51.68
61761;BME280;47664;51.660;-0.100;2023-05-23T07:11:35;101994.61;;;12.87;51.18
61761;BME280;47664;51.660;-0.100;2023-05-23T07:14:04;101995.65;;;12.83;50.28
61761;BME280;47664;51.660;-0.100;2023-05-23T07:16:31;101996.02;;;12.66;50.31
61761;BME280;47664;51.660;-0.100;2023-05-23T07:19:00;101995.63;;;11.99;50.90
61761;BME280;47664;51.660;-0.100;2023-05-23T07:21:27;101997.92;;;12.54;51.49
61761;BME280;47664;51.660;-0.100;2023-05-23T07:23:55;101992.30;;;12.73;50.25
61761;BME280;47664;51.660;-0.100;2023-05-23T07:26:22;101993.17;;;12.61;49.98
61761;BME280;47664;51.660;-0.100;2023-05-23T07:28:50;101990.61;;;11.98;50.27
61761;BME280;47664;51.660;-0.100;2023-05-23T07:31:17;101998.17;;;12.55;50.54
61761;BME280;47664;51.660;-0.100;2023-05-23T07:33:45;101991.73;;;12.76;50.22
61761;BME280;47664;51.660;-0.100;2023-05-23T07:36:12;101994.18;;;12.68;50.17
61761;BME280;47664;51.660;-0.100;2023-05-23T07:38:39;101995.10;;;12.88;49.57
61761;BME280;47664;51.660;-0.100;2023-05-23T07:41:07;101993.97;;;12.88;49.90
61761;BME280;47664;51.660;-0.100;2023-05-23T07:43:35;102002.20;;;12.40;50.53
61761;BME280;47664;51.660;-0.100;2023-05-23T07:46:03;102001.24;;;12.66;50.10
61761;BME280;47664;51.660;-0.100;2023-05-23T07:48:30;102000.78;;;12.91;49.40
61761;BME280;47664;51.660;-0.100;2023-05-23T07:50:58;102004.31;;;12.49;48.61
61761;BME280;47664;51.660;-0.100;2023-05-23T07:53:25;102007.34;;;13.26;48.38
61761;BME280;47664;51.660;-0.100;2023-05-23T07:55:53;102007.91;;;13.14;48.02
61761;BME280;47664;51.660;-0.100;2023-05-23T07:58:20;102005.17;;;13.69;47.43
61761;BME280;47664;51.660;-0.100;2023-05-23T08:00:49;102003.00;;;12.41;47.68
61761;BME280;47664;51.660;-0.100;2023-05-23T08:03:16;101999.44;;;13.11;47.55
61761;BME280;47664;51.660;-0.100;2023-05-23T08:05:43;102000.90;;;13.18;47.31
61761;BME280;47664;51.660;-0.100;2023-05-23T08:08:10;102000.73;;;13.27;47.21
61761;BME280;47664;51.660;-0.100;2023-05-23T08:10:39;102005.91;;;13.58;46.92
61761;BME280;47664;51.660;-0.100;2023-05-23T08:13:08;102003.23;;;13.42;46.81
61761;BME280;47664;51.660;-0.100;2023-05-23T08:15:35;102006.56;;;13.79;46.48
61761;BME280;47664;51.660;-0.100;2023-05-23T08:18:04;102006.12;;;12.83;47.54
61761;BME280;47664;51.660;-0.100;2023-05-23T08:20:31;102005.09;;;13.32;47.37
61761;BME280;47664;51.660;-0.100;2023-05-23T08:22:58;102006.49;;;12.36;48.29
61761;BME280;47664;51.660;-0.100;2023-05-23T08:25:26;102007.77;;;13.29;47.96
61761;BME280;47664;51.660;-0.100;2023-05-23T08:27:55;102008.12;;;13.66;47.21
61761;BME280;47664;51.660;-0.100;2023-05-23T08:30:22;102013.13;;;13.58;46.82
61761;BME280;47664;51.660;-0.100;2023-05-23T08:32:51;102010.21;;;12.98;46.49
61761;BME280;47664;51.660;-0.100;2023-05-23T08:35:18;102008.41;;;13.81;46.20
61761;BME280;47664;51.660;-0.100;2023-05-23T08:37:46;102009.09;;;14.09;46.26
61761;BME280;47664;51.660;-0.100;2023-05-23T08:40:18;102014.87;;;14.00;46.42
61761;BME280;47664;51.660;-0.100;2023-05-23T08:42:46;102013.27;;;13.92;46.08
61761;BME280;47664;51.660;-0.100;2023-05-23T08:45:14;102013.02;;;14.14;44.95
61761;BME280;47664;51.660;-0.100;2023-05-23T08:47:43;102013.44;;;13.73;44.81
61761;BME280;47664;51.660;-0.100;2023-05-23T08:50:12;102011.80;;;13.57;46.13
61761;BME280;47664;51.660;-0.100;2023-05-23T08:52:44;102007.35;;;13.50;46.31
61761;BME280;47664;51.660;-0.100;2023-05-23T08:55:14;102009.75;;;14.01;45.26
61761;BME280;47664;51.660;-0.100;2023-05-23T08:57:42;102004.23;;;13.35;46.24
61761;BME280;47664;51.660;-0.100;2023-05-23T09:00:12;102006.97;;;13.67;45.41
61761;BME280;47664;51.660;-0.100;2023-05-23T09:02:43;102003.98;;;14.19;44.93
61761;BME280;47664;51.660;-0.100;2023-05-23T09:05:11;102009.72;;;13.91;44.38
61761;BME280;47664;51.660;-0.100;2023-05-23T09:07:40;102009.30;;;14.68;44.20
61761;BME280;47664;51.660;-0.100;2023-05-23T09:10:09;102011.43;;;14.57;44.15
61761;BME280;47664;51.660;-0.100;2023-05-23T09:12:37;102011.70;;;14.98;43.52
61761;BME280;47664;51.660;-0.100;2023-05-23T09:15:05;102011.82;;;14.18;42.16
61761;BME280;47664;51.660;-0.100;2023-05-23T09:17:33;102009.50;;;14.82;42.12
61761;BME280;47664;51.660;-0.100;2023-05-23T09:20:00;102010.56;;;14.52;41.77
61761;BME280;47664;51.660;-0.100;2023-05-23T09:22:28;102012.33;;;14.03;43.15
61761;BME280;47664;51.660;-0.100;2023-05-23T09:24:57;102011.41;;;13.13;43.46
61761;BME280;47664;51.660;-0.100;2023-05-23T09:27:25;102014.32;;;13.46;42.80
61761;BME280;47664;51.660;-0.100;2023-05-23T09:29:53;102009.88;;;13.39;41.80
61761;BME280;47664;51.660;-0.100;2023-05-23T09:32:20;102009.39;;;14.53;40.74
61761;BME280;47664;51.660;-0.100;2023-05-23T09:34:58;102008.97;;;13.84;41.33
61761;BME280;47664;51.660;-0.100;2023-05-23T09:37:29;102011.21;;;14.66;40.14
61761;BME280;47664;51.660;-0.100;2023-05-23T09:39:58;102013.04;;;15.13;40.91
61761;BME280;47664;51.660;-0.100;2023-05-23T09:42:30;102011.78;;;15.30;41.82
61761;BME280;47664;51.660;-0.100;2023-05-23T09:44:58;102016.87;;;14.58;41.92
61761;BME280;47664;51.660;-0.100;2023-05-23T09:47:26;102019.65;;;15.14;41.83
61761;BME280;47664;51.660;-0.100;2023-05-23T09:49:54;102018.39;;;15.01;41.18
61761;BME280;47664;51.660;-0.100;2023-05-23T09:52:22;102023.03;;;15.29;41.33
61761;BME280;47664;51.660;-0.100;2023-05-23T09:54:50;102024.54;;;14.47;40.84
61761;BME280;47664;51.660;-0.100;2023-05-23T09:57:18;102022.14;;;15.07;41.54
61761;BME280;47664;51.660;-0.100;2023-05-23T09:59:52;102023.09;;;14.95;41.55
61761;BME280;47664;51.660;-0.100;2023-05-23T10:02:54;102017.00;;;15.62;41.87
61761;BME280;47664;51.660;-0.100;2023-05-23T10:05:32;102020.53;;;15.75;40.36
61761;BME280;47664;51.660;-0.100;2023-05-23T10:08:07;102021.46;;;16.05;39.75
61761;BME280;47664;51.660;-0.100;2023-05-23T10:11:21;102020.83;;;16.43;38.92
61761;BME280;47664;51.660;-0.100;2023-05-23T10:13:59;102016.47;;;16.86;38.99
61761;BME280;47664;51.660;-0.100;2023-05-23T10:16:36;102009.02;;;17.26;38.17
61761;BME280;47664;51.660;-0.100;2023-05-23T10:19:12;102013.27;;;16.34;38.44
61761;BME280;47664;51.660;-0.100;2023-05-23T10:21:48;102012.99;;;16.41;38.81
61761;BME280;47664;51.660;-0.100;2023-05-23T10:24:16;102011.11;;;16.54;37.87
61761;BME280;47664;51.660;-0.100;2023-05-23T10:26:45;102008.77;;;16.16;37.46
61761;BME280;47664;51.660;-0.100;2023-05-23T10:29:12;102003.67;;;16.36;37.81
61761;BME280;47664;51.660;-0.100;2023-05-23T10:31:41;102009.91;;;16.85;37.84
61761;BME280;47664;51.660;-0.100;2023-05-23T10:34:16;102007.24;;;16.63;36.77
61761;BME280;47664;51.660;-0.100;2023-05-23T10:36:55;102010.37;;;15.63;38.53
61761;BME280;47664;51.660;-0.100;2023-05-23T10:39:34;102011.34;;;16.14;39.36
61761;BME280;47664;51.660;-0.100;2023-05-23T10:42:08;102012.90;;;16.32;38.72
61761;BME280;47664;51.660;-0.100;2023-05-23T10:44:38;102012.78;;;16.79;38.55
61761;BME280;47664;51.660;-0.100;2023-05-23T10:47:06;102014.81;;;16.20;38.63
61761;BME280;47664;51.660;-0.100;2023-05-23T10:49:39;102015.42;;;16.90;38.06
61761;BME280;47664;51.660;-0.100;2023-05-23T10:52:07;102014.61;;;16.38;38.41
61761;BME280;47664;51.660;-0.100;2023-05-23T10:54:35;102018.91;;;16.61;38.43
61761;BME280;47664;51.660;-0.100;2023-05-23T10:57:04;102019.89;;;15.83;37.81
61761;BME280;47664;51.660;-0.100;2023-05-23T10:59:31;102014.91;;;16.26;38.31
61761;BME280;47664;51.660;-0.100;2023-05-23T11:01:59;102023.76;;;16.47;38.32
61761;BME280;47664;51.660;-0.100;2023-05-23T11:04:27;102022.93;;;16.52;38.45
61761;BME280;47664;51.660;-0.100;2023-05-23T11:06:55;102028.01;;;15.59;38.04
61761;BME280;47664;51.660;-0.100;2023-05-23T11:09:24;102029.68;;;16.02;38.57
61761;BME280;47664;51.660;-0.100;2023-05-23T11:11:54;102026.95;;;16.14;38.43
61761;BME280;47664;51.660;-0.100;2023-05-23T11:14:32;102026.41;;;16.39;38.86
61761;BME280;47664;51.660;-0.100;2023-05-23T11:17:02;102030.58;;;15.40;39.13
61761;BME280;47664;51.660;-0.100;2023-05-23T11:19:55;102030.67;;;16.17;38.54
61761;BME280;47664;51.660;-0.100;2023-05-23T11:22:31;102024.96;;;15.66;40.66
61761;BME280;47664;51.660;-0.100;2023-05-23T11:25:00;102030.06;;;15.15;40.71
61761;BME280;47664;51.660;-0.100;2023-05-23T11:27:30;102030.20;;;15.78;40.81
61761;BME280;47664;51.660;-0.100;2023-05-23T11:29:59;102030.91;;;15.96;40.43
61761;BME280;47664;51.660;-0.100;2023-05-23T11:32:27;102035.75;;;16.28;40.28
61761;BME280;47664;51.660;-0.100;2023-05-23T11:34:59;102030.93;;;14.70;40.03
61761;BME280;47664;51.660;-0.100;2023-05-23T11:37:27;102032.62;;;16.45;39.30
61761;BME280;47664;51.660;-0.100;2023-05-23T11:39:55;102029.94;;;16.91;39.15
61761;BME280;47664;51.660;-0.100;2023-05-23T11:42:23;102032.52;;;16.85;38.84
61761;BME280;47664;51.660;-0.100;2023-05-23T11:44:51;102030.81;;;16.17;38.75
61761;BME280;47664;51.660;-0.100;2023-05-23T11:47:19;102023.25;;;17.34;38.62
61761;BME280;47664;51.660;-0.100;2023-05-23T11:49:47;102031.54;;;16.59;39.03
61761;BME280;47664;51.660;-0.100;2023-05-23T11:52:15;102026.23;;;16.77;39.53
61761;BME280;47664;51.660;-0.100;2023-05-23T11:54:42;102027.83;;;16.90;38.82
61761;BME280;47664;51.660;-0.100;2023-05-23T11:57:11;102027.20;;;17.06;38.32
61761;BME280;47664;51.660;-0.100;2023-05-23T11:59:39;102017.37;;;17.50;38.27
61761;BME280;47664;51.660;-0.100;2023-05-23T12:02:07;102008.18;;;17.09;38.11
61761;BME280;47664;51.660;-0.100;2023-05-23T12:04:35;102008.58;;;17.56;37.83
61761;BME280;47664;51.660;-0.100;2023-05-23T12:07:04;102004.09;;;17.84;37.26
61761;BME280;47664;51.660;-0.100;2023-05-23T12:09:41;102002.44;;;17.56;37.58
61761;BME280;47664;51.660;-0.100;2023-05-23T12:12:08;102004.26;;;17.37;36.71
61761;BME280;47664;51.660;-0.100;2023-05-23T12:14:36;102000.87;;;17.58;36.40
61761;BME280;47664;51.660;-0.100;2023-05-23T12:17:04;101995.18;;;17.05;36.06
61761;BME280;47664;51.660;-0.100;2023-05-23T12:19:31;102000.19;;;18.01;35.79
61761;BME280;47664;51.660;-0.100;2023-05-23T12:22:05;102004.47;;;17.14;36.42
61761;BME280;47664;51.660;-0.100;2023-05-23T12:24:33;102005.71;;;16.48;38.34
61761;BME280;47664;51.660;-0.100;2023-05-23T12:27:02;102005.21;;;16.02;39.75
61761;BME280;47664;51.660;-0.100;2023-05-23T12:29:30;102005.17;;;15.74;39.53
61761;BME280;47664;51.660;-0.100;2023-05-23T12:32:00;102002.75;;;16.31;39.68
61761;BME280;47664;51.660;-0.100;2023-05-23T12:34:28;101997.03;;;16.66;39.34
61761;BME280;47664;51.660;-0.100;2023-05-23T12:36:57;101994.59;;;16.43;38.86
61761;BME280;47664;51.660;-0.100;2023-05-23T12:39:25;101992.55;;;17.34;38.02
61761;BME280;47664;51.660;-0.100;2023-05-23T12:41:54;101991.64;;;16.87;38.34
61761;BME280;47664;51.660;-0.100;2023-05-23T12:44:22;101987.15;;;17.38;37.52
61761;BME280;47664;51.660;-0.100;2023-05-23T12:46:49;101985.43;;;17.62;37.08
61761;BME280;47664;51.660;-0.100;2023-05-23T12:49:17;101982.62;;;17.56;37.53
61761;BME280;47664;51.660;-0.100;2023-05-23T12:51:45;101983.17;;;17.83;37.41
61761;BME280;47664;51.660;-0.100;2023-05-23T12:54:12;101978.24;;;17.96;36.90
61761;BME280;47664;51.660;-0.100;2023-05-23T12:56:41;101979.85;;;17.48;37.34
61761;BME280;47664;51.660;-0.100;2023-05-23T12:59:08;101976.80;;;17.43;37.14